createdAt,value
2017-05-13T00:00:09.269Z,13.88
2017-05-13T00:10:09.250Z,13.63
2017-05-13T00:20:09.159Z,13.73
2017-05-13T00:30:09.135Z,13.77
2017-05-13T00:40:09.196Z,13.94
2017-05-13T00:50:09.266Z,13.96
2017-05-13T01:00:09.154Z,14.02
2017-05-13T01:10:09.150Z,14.07
2017-05-13T01:20:09.255Z,14.12
2017-05-13T01:30:09.211Z,14.07
2017-05-13T01:40:09.140Z,14.13
2017-05-13T01:50:09.214Z,13.87
2017-05-13T02:00:09.154Z,13.95
2017-05-13T02:10:09.295Z,14.06
2017-05-13T02:20:09.209Z,13.99
2017-05-13T02:30:09.169Z,14.06
2017-05-13T02:40:09.139Z,13.8
2017-05-13T02:50:09.151Z,13.32
2017-05-13T03:00:09.173Z,13.06
2017-05-13T03:10:09.138Z,12.93
2017-05-13T03:20:09.182Z,12.88
2017-05-13T03:30:09.140Z,13.09
2017-05-13T03:40:09.225Z,12.99
2017-05-13T03:50:10.189Z,13.11
2017-05-13T04:00:09.247Z,13.07
2017-05-13T04:10:09.126Z,13.06
2017-05-13T04:20:09.140Z,13.17
2017-05-13T04:30:09.131Z,13.56
2017-05-13T04:40:09.134Z,13.99
2017-05-13T04:50:09.236Z,14.43
2017-05-13T05:00:09.207Z,15.02
2017-05-13T05:10:09.175Z,15.59
2017-05-13T05:20:09.222Z,15.75
2017-05-13T05:30:09.140Z,15.59
2017-05-13T05:40:09.250Z,15.79
2017-05-13T05:50:09.159Z,15.99
2017-05-13T06:00:09.185Z,16.33
2017-05-13T06:10:10.169Z,16.53
2017-05-13T06:20:09.164Z,17.08
2017-05-13T06:30:09.166Z,17.26
2017-05-13T06:40:09.210Z,17.35
2017-05-13T06:50:09.179Z,17.33
2017-05-13T07:00:09.138Z,17.48
2017-05-13T07:10:09.262Z,17.73
2017-05-13T07:20:10.188Z,17.92
2017-05-13T07:30:09.149Z,18.22
2017-05-13T07:40:09.182Z,18.06
2017-05-13T07:50:09.255Z,18.1
2017-05-13T08:00:09.151Z,18.37
2017-05-13T08:10:10.193Z,19.01
2017-05-13T08:20:10.261Z,19.29
2017-05-13T08:30:09.168Z,19.73
2017-05-13T08:40:09.278Z,20.1
2017-05-13T08:50:09.218Z,20.76
2017-05-13T09:00:09.160Z,20.84
2017-05-13T09:10:11.191Z,21.56
2017-05-13T09:20:09.170Z,21.94
2017-05-13T09:30:09.343Z,22.83
2017-05-13T09:40:09.224Z,23.22
2017-05-13T09:50:09.174Z,22.93
2017-05-13T10:00:09.745Z,22.99
2017-05-13T10:10:17.849Z,23.23
2017-05-13T10:20:09.152Z,22.75
2017-05-13T10:30:09.160Z,22.59
2017-05-13T10:40:09.165Z,23.14
2017-05-13T10:50:09.262Z,22.53
2017-05-13T11:00:09.204Z,23.38
2017-05-13T11:10:09.178Z,22.74
2017-05-13T11:20:09.182Z,22.68
2017-05-13T11:30:09.211Z,22.34
2017-05-13T12:00:09.190Z,22.56
2017-05-13T12:20:12.278Z,22.84
2017-05-13T12:30:09.179Z,24.01
2017-05-13T12:50:09.187Z,23.11
2017-05-13T13:00:09.195Z,23.68
2017-05-13T13:10:11.306Z,23.26
2017-05-13T13:20:09.201Z,23.12
2017-05-13T13:30:27.340Z,22.84
2017-05-13T13:40:09.196Z,23.8
2017-05-13T13:50:09.249Z,23.92
2017-05-13T14:10:16.481Z,23.61
2017-05-13T14:20:09.206Z,24.42
2017-05-13T14:30:09.210Z,24.44
2017-05-13T14:40:09.210Z,24.37
2017-05-13T14:50:09.220Z,23.92
2017-05-13T15:00:09.220Z,23.62
2017-05-13T15:10:09.211Z,23.5
2017-05-13T15:50:09.222Z,23.57
2017-05-13T16:00:09.219Z,23.09
2017-05-13T16:20:09.239Z,23.85
2017-05-13T16:30:09.239Z,23.52
2017-05-13T16:40:09.267Z,23.52
2017-05-13T16:50:09.238Z,23.42
2017-05-13T17:10:16.969Z,22.78
2017-05-13T17:30:14.560Z,21.99
2017-05-13T17:50:09.241Z,21.32
2017-05-13T18:00:09.232Z,20.87
2017-05-13T18:10:09.255Z,20.66
2017-05-13T18:20:09.245Z,20.51
2017-05-13T18:30:09.251Z,20.27
2017-05-13T18:40:09.241Z,20.12
2017-05-13T18:50:13.267Z,19.9
2017-05-13T19:00:14.106Z,19.57
2017-05-13T19:10:19.242Z,19.32
2017-05-13T19:20:09.240Z,18.82
2017-05-13T19:40:23.694Z,18.15
2017-05-13T19:50:22.389Z,17.76
2017-05-13T20:00:12.435Z,17.11
2017-05-13T20:30:22.744Z,16
2017-05-13T20:40:09.293Z,15.81
2017-05-13T20:50:09.267Z,15.68
2017-05-13T21:00:09.266Z,15.92
2017-05-13T21:10:09.268Z,16.07
2017-05-13T21:20:11.361Z,16.25
2017-05-13T21:30:09.245Z,16
2017-05-13T21:40:09.332Z,15.99
2017-05-13T21:50:21.779Z,15.86
2017-05-13T22:00:09.257Z,15.82
2017-05-13T22:10:14.396Z,15.66
2017-05-13T22:20:09.292Z,15.68
2017-05-13T22:50:09.270Z,15.7
2017-05-13T23:00:16.201Z,15.51
2017-05-13T23:10:11.309Z,15.57
2017-05-13T23:20:13.937Z,15.63
2017-05-13T23:30:21.181Z,15.61
2017-05-13T23:40:09.255Z,15.52
